Time;durP1;ratioP1;P1;durP2;ratioP2;P2;SDS_P1;SDS_P2;PMS_P1;PMS_P2;Temp;Humidity;BMP_temperature;BMP_pressure;BME280_temperature;BME280_humidity;BME280_pressure;Samples;Min_cycle;Max_cycle;Signal;HPM_P1;HPM_P2
2022/06/18 00:01:35;;;;;;;8.50;3.60;;;;;;;18.93;49.00;101221.33;1750532;80;25700;-65
2022/06/18 00:04:05;;;;;;;7.05;3.58;;;;;;;18.95;49.05;101223.95;1749806;80;98670;-64
2022/06/18 00:06:55;;;;;;;9.00;3.67;;;;;;;18.94;49.11;101227.15;1752502;80;26052;-65
2022/06/18 00:09:28;;;;;;;12.25;3.83;;;;;;;18.94;49.14;101224.92;1754549;80;98760;-66
2022/06/18 00:14:44;;;;;;;8.80;3.60;;;;;;;18.92;49.27;101215.52;1751729;80;98818;-65
2022/06/18 00:17:19;;;;;;;7.28;3.12;;;;;;;18.91;49.30;101217.85;1713570;82;28219;-65
2022/06/18 00:19:49;;;;;;;9.18;3.47;;;;;;;18.90;49.41;101210.67;1753877;80;25839;-66
2022/06/18 00:22:19;;;;;;;7.08;3.60;;;;;;;18.89;49.40;101207.58;1753974;80;98926;-66
2022/06/18 00:24:45;;;;;;;8.70;3.52;;;;;;;18.88;49.49;101211.77;1751616;80;27094;-65
2022/06/18 00:27:16;;;;;;;7.72;3.58;;;;;;;18.87;49.54;101208.17;1758926;80;98757;-64
2022/06/18 00:29:51;;;;;;;10.08;3.72;;;;;;;18.86;49.60;101205.08;1757728;80;28084;-65
2022/06/18 00:32:20;;;;;;;7.30;3.72;;;;;;;18.85;49.64;101207.41;1751092;80;99111;-64
2022/06/18 00:34:46;;;;;;;7.45;3.33;;;;;;;18.83;49.70;101212.56;1752270;80;26073;-65
2022/06/18 00:37:17;;;;;;;5.62;3.30;;;;;;;18.82;49.74;101211.69;1757349;80;25746;-65
2022/06/18 00:39:49;;;;;;;8.20;3.58;;;;;;;18.82;49.75;101211.69;1749623;80;98593;-64
2022/06/18 00:42:26;;;;;;;8.40;4.10;;;;;;;18.79;49.83;101204.62;1751155;80;27422;-65
2022/06/18 00:44:57;;;;;;;10.95;3.70;;;;;;;18.84;49.84;101211.10;1747718;80;98933;-65
2022/06/18 00:47:54;;;;;;;8.15;3.35;;;;;;;18.85;49.91;101206.05;1752203;80;26255;-65
2022/06/18 00:50:38;;;;;;;12.98;4.10;;;;;;;18.84;49.94;101212.95;1750891;80;98885;-65
2022/06/18 00:53:35;;;;;;;6.67;3.58;;;;;;;18.85;49.94;101206.05;1753115;80;25855;-65
2022/06/18 00:56:24;;;;;;;7.90;3.15;;;;;;;18.83;49.97;101206.64;1745625;80;27461;-65
2022/06/18 00:59:14;;;;;;;6.10;3.52;;;;;;;18.80;49.97;101206.86;1747573;80;98501;-65
2022/06/18 01:01:45;;;;;;;6.83;3.55;;;;;;;18.76;50.03;101198.53;1750796;80;25867;-65
2022/06/18 01:04:31;;;;;;;5.05;2.90;;;;;;;18.72;50.05;101201.08;1750787;80;98808;-64
2022/06/18 01:07:05;;;;;;;7.72;3.42;;;;;;;18.68;50.10;101194.12;1750294;80;25914;-65
2022/06/18 01:09:32;;;;;;;5.60;2.72;;;;;;;18.69;50.12;101195.86;1749236;80;98771;-65
2022/06/18 01:12:00;;;;;;;8.50;3.27;;;;;;;18.65;50.15;101192.97;1731819;80;26156;-65
2022/06/18 01:14:29;;;;;;;4.58;2.60;;;;;;;18.62;50.24;101189.11;1754503;80;98815;-65
2022/06/18 01:17:00;;;;;;;8.90;3.65;;;;;;;18.61;50.29;101190.08;1732641;80;26128;-65
2022/06/18 01:19:32;;;;;;;;;;;;;;;18.58;50.30;101190.25;1753431;80;25747;-65
2022/06/18 01:22:34;;;;;;;9.10;4.08;;;;;;;18.56;50.46;101187.64;1746365;80;84080;-65
2022/06/18 01:25:06;;;;;;;6.67;3.33;;;;;;;18.50;50.39;101184.86;1751374;80;25849;-65
2022/06/18 01:27:35;;;;;;;10.45;3.87;;;;;;;18.44;50.46;101177.13;1749969;80;98770;-65
2022/06/18 01:30:14;;;;;;;9.15;3.65;;;;;;;18.42;50.56;101176.36;1750129;80;26553;-65
2022/06/18 01:32:42;;;;;;;5.92;4.05;;;;;;;18.40;50.61;101171.52;1749161;80;98139;-64
2022/06/18 01:35:11;;;;;;;4.75;3.58;;;;;;;18.38;50.70;101172.60;1750625;80;27398;-65
2022/06/18 01:37:40;;;;;;;7.08;4.05;;;;;;;18.34;50.75;101171.94;1750022;80;26378;-65
2022/06/18 01:40:12;;;;;;;7.22;4.50;;;;;;;18.30;50.86;101163.63;1747947;80;98775;-65
2022/06/18 01:42:47;;;;;;;7.50;4.12;;;;;;;18.25;50.94;101163.55;1756450;80;26042;-65
2022/06/18 01:45:23;;;;;;;6.35;3.85;;;;;;;18.23;51.04;101157.34;1751219;80;98728;-66
2022/06/18 01:48:04;;;;;;;6.53;4.03;;;;;;;18.23;51.20;101162.29;1736175;81;28114;-63
2022/06/18 01:50:50;;;;;;;12.07;4.20;;;;;;;18.23;51.24;101151.92;1700020;82;98918;-63
2022/06/18 01:53:41;;;;;;;6.45;3.92;;;;;;;18.22;51.30;101152.41;1724182;81;26320;-64
2022/06/18 01:56:14;;;;;;;5.83;4.08;;;;;;;18.21;51.34;101148.44;1756414;80;26039;-66
2022/06/18 01:58:52;;;;;;;9.58;3.80;;;;;;;18.16;51.38;101147.42;1726729;81;98683;-64
2022/06/18 02:01:26;;;;;;;10.32;3.60;;;;;;;18.12;51.43;101144.53;1706737;82;27570;-64
2022/06/18 02:03:57;;;;;;;11.12;3.60;;;;;;;18.10;51.56;101149.19;1751718;80;99047;-65
2022/06/18 02:06:24;;;;;;;7.53;3.52;;;;;;;18.11;51.62;101149.58;1726372;81;25796;-64
2022/06/18 02:08:51;;;;;;;11.95;3.60;;;;;;;18.06;51.68;101136.80;1705498;82;98954;-64
2022/06/18 02:11:19;;;;;;;6.22;3.33;;;;;;;18.09;51.73;101148.81;1753489;80;25651;-64
2022/06/18 02:14:00;;;;;;;5.67;3.33;;;;;;;18.10;51.79;101147.35;1731890;81;28180;-64
2022/06/18 02:16:30;;;;;;;8.88;3.45;;;;;;;18.11;51.82;101138.73;1728687;81;98712;-65
2022/06/18 02:18:59;;;;;;;7.58;3.58;;;;;;;18.08;51.90;101145.23;1737359;81;25723;-65
2022/06/18 02:21:25;;;;;;;5.50;3.58;;;;;;;18.10;51.93;101138.34;1730708;81;98681;-64
2022/06/18 02:23:54;;;;;;;7.90;3.60;;;;;;;18.08;51.97;101135.73;1732725;81;25714;-64
2022/06/18 02:26:26;;;;;;;10.32;3.05;;;;;;;18.08;52.05;101137.09;1721632;81;28070;-65
2022/06/18 02:28:54;;;;;;;10.95;3.08;;;;;;;18.09;52.09;101136.11;1693950;82;98679;-65
2022/06/18 02:31:30;;;;;;;7.12;3.05;;;;;;;18.06;52.09;101133.61;1754375;80;25723;-64
2022/06/18 02:34:04;;;;;;;5.55;3.15;;;;;;;18.08;52.11;101133.50;1753067;80;98598;-65
2022/06/18 02:36:36;;;;;;;6.75;3.30;;;;;;;18.04;52.16;101134.68;1752410;79;25799;-65
2022/06/18 02:39:22;;;;;;;8.45;3.02;;;;;;;18.04;52.21;101133.33;1751524;80;98874;-65
2022/06/18 02:41:49;;;;;;;9.20;3.12;;;;;;;18.05;52.28;101131.00;1745192;80;27129;-65
2022/06/18 02:44:16;;;;;;;5.28;2.77;;;;;;;18.08;52.26;101134.38;1759230;80;25809;-64
2022/06/18 02:46:44;;;;;;;5.60;2.92;;;;;;;18.08;52.26;101138.45;1755905;80;98681;-65
2022/06/18 02:49:13;;;;;;;6.72;3.47;;;;;;;18.08;52.35;101134.38;1752262;80;25759;-65
2022/06/18 02:51:41;;;;;;;7.67;3.20;;;;;;;18.10;52.37;101132.92;1748780;80;98792;-65
2022/06/18 02:54:12;;;;;;;10.30;3.12;;;;;;;18.12;52.40;101134.55;1760255;80;26431;-64
2022/06/18 02:56:38;;;;;;;4.37;3.00;;;;;;;18.07;52.38;101134.48;1749878;80;99062;-64
2022/06/18 02:59:06;;;;;;;6.10;3.08;;;;;;;18.02;52.49;101124.42;1751401;80;26213;-67
2022/06/18 03:01:35;;;;;;;5.75;3.52;;;;;;;18.02;52.56;101118.99;1748971;80;25842;-65
2022/06/18 03:04:03;;;;;;;6.15;3.05;;;;;;;18.00;52.56;101119.58;1750242;80;98829;-64
2022/06/18 03:06:33;;;;;;;8.35;4.12;;;;;;;17.99;52.66;101119.20;1757423;80;25776;-66
2022/06/18 03:09:02;;;;;;;5.60;3.40;;;;;;;17.98;52.67;101114.26;1756972;80;98929;-64
2022/06/18 03:14:16;;;;;;;6.87;3.42;;;;;;;17.99;52.73;101113.77;1752063;80;25759;-66
2022/06/18 03:16:43;;;;;;;3.50;2.93;;;;;;;18.00;52.76;101112.80;1751556;80;99015;-66
2022/06/18 03:19:23;;;;;;;6.20;3.30;;;;;;;18.00;52.79;101107.38;1758295;80;25848;-64
2022/06/18 03:21:54;;;;;;;3.92;3.15;;;;;;;18.07;52.86;101110.06;1749701;80;98682;-65
2022/06/18 03:24:20;;;;;;;8.63;3.42;;;;;;;18.10;52.82;101108.02;1710954;81;26561;-64
2022/06/18 03:26:47;;;;;;;4.75;3.58;;;;;;;18.11;52.82;101112.95;1755573;80;98925;-64
2022/06/18 03:29:14;;;;;;;7.97;3.22;;;;;;;18.15;52.85;101107.70;1752202;80;27549;-64
2022/06/18 03:31:41;;;;;;;9.65;3.22;;;;;;;18.12;52.84;101092.50;1752160;80;26844;-66
2022/06/18 03:34:08;;;;;;;11.00;3.77;;;;;;;18.15;52.81;101090.94;1755012;80;98831;-64
2022/06/18 03:36:35;;;;;;;8.78;3.17;;;;;;;18.16;52.91;101097.23;1753152;80;28178;-66
2022/06/18 03:39:03;;;;;;;7.47;3.20;;;;;;;18.13;52.90;101100.16;1754487;80;98959;-66
2022/06/18 03:41:31;;;;;;;5.50;3.05;;;;;;;18.12;52.94;101096.57;1748522;80;27368;-66
2022/06/18 03:43:58;;;;;;;7.50;3.45;;;;;;;18.14;52.99;101093.75;1752203;80;25675;-66
2022/06/18 03:46:27;;;;;;;4.45;3.35;;;;;;;18.16;53.01;101094.52;1748780;80;99032;-66
2022/06/18 03:49:02;;;;;;;5.10;3.22;;;;;;;18.17;53.06;101092.19;1757961;79;28063;-66
2022/06/18 03:51:28;;;;;;;6.80;3.35;;;;;;;18.19;53.07;101088.88;1750855;80;98703;-64
2022/06/18 03:53:55;;;;;;;6.75;3.50;;;;;;;18.23;53.08;101079.53;1715645;82;28784;-64
2022/06/18 03:56:27;;;;;;;6.03;3.47;;;;;;;18.25;53.02;101081.66;1713283;82;25972;-66
2022/06/18 03:58:56;;;;;;;9.25;3.60;;;;;;;18.31;53.07;101079.88;1750876;78;98380;-64
2022/06/18 04:01:31;;;;;;;5.50;3.47;;;;;;;18.35;53.00;101082.77;1751036;80;26546;-66
2022/06/18 04:03:58;;;;;;;7.17;3.60;;;;;;;18.39;53.05;101078.86;1754441;80;98723;-64
2022/06/18 04:06:24;;;;;;;6.28;3.77;;;;;;;18.45;53.01;101073.49;1754960;80;27469;-65
2022/06/18 04:08:51;;;;;;;5.28;3.42;;;;;;;18.49;52.94;101080.45;1753335;80;98774;-64
2022/06/18 04:11:17;;;;;;;6.65;4.47;;;;;;;18.51;52.93;101077.14;1756423;80;25779;-64
2022/06/18 04:13:45;;;;;;;8.43;3.25;;;;;;;18.52;52.89;101068.51;1757294;80;26182;-64
2022/06/18 04:16:12;;;;;;;8.53;4.92;;;;;;;18.56;52.92;101064.60;1731847;81;98668;-64
2022/06/18 04:18:38;;;;;;;7.72;3.70;;;;;;;18.59;52.86;101060.31;1750724;80;29496;-64
2022/06/18 04:21:04;;;;;;;13.30;3.60;;;;;;;18.65;52.90;101052.64;1746285;80;98876;-64
2022/06/18 04:23:34;;;;;;;10.82;3.87;;;;;;;18.72;52.88;101054.44;1753401;80;26532;-64
2022/06/18 04:26:01;;;;;;;7.85;4.08;;;;;;;18.74;52.80;101049.77;1749442;80;26189;-64
2022/06/18 04:28:30;;;;;;;13.48;4.05;;;;;;;18.76;52.81;101051.39;1757999;80;98685;-64
2022/06/18 04:30:58;;;;;;;13.40;3.40;;;;;;;18.80;52.74;101047.97;1754633;80;29560;-64
2022/06/18 04:33:28;;;;;;;6.97;3.33;;;;;;;18.80;52.73;101050.69;1744768;80;98831;-64
2022/06/18 04:35:56;;;;;;;10.50;3.77;;;;;;;18.77;52.68;101062.64;1755915;80;25791;-64
2022/06/18 04:38:23;;;;;;;11.88;3.30;;;;;;;18.79;52.67;101059.33;1752044;80;25737;-65
2022/06/18 04:40:50;;;;;;;10.72;3.27;;;;;;;18.80;52.68;101056.12;1754984;80;98682;-64
2022/06/18 04:43:17;;;;;;;7.40;3.22;;;;;;;18.86;52.66;101057.05;1760256;80;27566;-65
2022/06/18 04:45:43;;;;;;;9.80;3.17;;;;;;;18.89;52.64;101055.47;1756666;80;98848;-64
2022/06/18 04:48:09;;;;;;;16.25;3.30;;;;;;;18.95;52.66;101052.31;1748901;80;25983;-64
2022/06/18 04:50:38;;;;;;;8.33;3.22;;;;;;;18.98;52.53;101053.45;1750048;80;98986;-64
2022/06/18 04:53:10;;;;;;;7.55;4.10;;;;;;;19.01;52.54;101055.08;1755891;80;26244;-64
2022/06/18 04:55:38;;;;;;;70.57;36.80;;;;;;;19.05;52.45;101053.87;1708306;82;27453;-65
2022/06/18 04:58:05;;;;;;;12.30;6.90;;;;;;;19.03;52.40;101052.62;1750595;80;99060;-65
2022/06/18 05:00:35;;;;;;;11.90;4.67;;;;;;;19.07;52.42;101045.12;1752170;80;25868;-64
2022/06/18 05:03:03;;;;;;;12.47;4.20;;;;;;;19.16;52.39;101041.73;1757961;80;98894;-64
2022/06/18 05:05:30;;;;;;;8.30;4.65;;;;;;;19.19;52.31;101041.52;1754549;80;25514;-64
2022/06/18 05:07:57;;;;;;;6.05;3.30;;;;;;;19.17;52.29;101027.17;1762706;80;27534;-64
2022/06/18 05:10:24;;;;;;;9.15;4.00;;;;;;;19.23;52.26;101032.16;1750701;80;98730;-64
2022/06/18 05:12:50;;;;;;;6.33;4.03;;;;;;;19.22;52.18;101026.84;1759002;80;26199;-66
2022/06/18 05:15:16;;;;;;;9.70;4.12;;;;;;;19.28;52.15;101030.46;1755449;80;98882;-64
2022/06/18 05:17:47;;;;;;;11.60;4.08;;;;;;;19.34;52.14;101023.22;1755704;80;25724;-64
2022/06/18 05:20:21;;;;;;;10.03;3.85;;;;;;;19.35;52.03;101020.88;1747719;80;33677;-65
2022/06/18 05:22:50;;;;;;;11.45;3.95;;;;;;;19.39;52.00;101025.10;1713033;82;100324;-67
2022/06/18 05:25:19;;;;;;;10.38;3.67;;;;;;;19.48;52.04;101018.11;1754361;80;25692;-64
2022/06/18 05:27:49;;;;;;;7.25;5.55;;;;;;;19.57;51.98;101017.45;1758618;80;98770;-65
2022/06/18 05:30:21;;;;;;;8.70;3.33;;;;;;;19.65;51.92;101013.67;1753813;80;25813;-64
2022/06/18 05:32:48;;;;;;;6.65;3.33;;;;;;;19.73;51.82;101004.44;1752482;80;98908;-64
2022/06/18 05:35:17;;;;;;;8.23;3.47;;;;;;;19.80;51.80;101003.48;1752271;80;26523;-64
2022/06/18 05:37:44;;;;;;;11.95;4.80;;;;;;;19.85;51.68;100995.34;1752750;80;25924;-65
2022/06/18 05:40:13;;;;;;;9.15;4.20;;;;;;;19.93;51.67;100988.83;1751827;80;98810;-64
2022/06/18 05:42:43;;;;;;;7.97;5.20;;;;;;;20.01;51.53;100991.83;1749688;80;26914;-65
2022/06/18 05:45:13;;;;;;;6.53;3.27;;;;;;;20.05;51.46;100993.81;1749860;80;98168;-65
2022/06/18 05:47:41;;;;;;;9.33;4.15;;;;;;;20.06;51.38;100995.06;1750752;80;26355;-64
2022/06/18 05:50:13;;;;;;;8.95;3.60;;;;;;;20.16;51.34;101000.66;1753364;80;26508;-65
2022/06/18 05:52:40;;;;;;;8.80;3.85;;;;;;;20.23;51.27;101002.41;1751857;80;98686;-64
2022/06/18 05:55:07;;;;;;;8.18;3.85;;;;;;;20.31;51.20;101008.12;1752529;80;25927;-64
2022/06/18 05:57:47;;;;;;;8.18;3.55;;;;;;;20.36;51.10;101003.19;1753780;80;99049;-64
2022/06/18 06:00:19;;;;;;;6.78;3.83;;;;;;;20.36;51.05;100998.60;1748521;80;25779;-64
2022/06/18 06:02:50;;;;;;;20.82;11.20;;;;;;;20.46;51.03;100997.91;1707328;82;98894;-67
2022/06/18 06:05:18;;;;;;;33.18;11.55;;;;;;;20.47;51.00;100995.56;1749468;80;26077;-66
2022/06/18 06:07:48;;;;;;;13.55;3.42;;;;;;;20.51;50.96;100986.16;1752079;80;25686;-65
2022/06/18 06:13:14;;;;;;;6.78;3.58;;;;;;;20.58;50.89;100978.74;1749189;80;26539;-65
2022/06/18 06:15:41;;;;;;;5.75;3.27;;;;;;;20.63;50.79;100978.38;1747441;80;98736;-66
2022/06/18 06:18:13;;;;;;;8.80;3.50;;;;;;;20.72;50.72;100987.17;1753723;80;27245;-66
2022/06/18 06:20:44;;;;;;;12.68;3.50;;;;;;;20.79;50.70;100982.09;1752004;80;99001;-64
2022/06/18 06:23:14;;;;;;;7.17;3.62;;;;;;;20.90;50.62;100983.42;1754537;80;27572;-65
2022/06/18 06:25:44;;;;;;;10.53;3.62;;;;;;;20.98;50.56;100985.03;1752469;80;26114;-64
2022/06/18 06:28:17;;;;;;;7.83;3.37;;;;;;;21.00;50.52;100992.09;1736532;80;98160;-64
2022/06/18 06:30:45;;;;;;;9.68;3.33;;;;;;;21.08;50.47;100989.61;1747528;80;26678;-64
2022/06/18 06:33:11;;;;;;;10.00;2.90;;;;;;;21.07;50.37;100990.60;1755256;80;98906;-64
2022/06/18 06:35:38;;;;;;;5.25;3.05;;;;;;;21.13;50.27;100976.97;1750778;80;29516;-67
2022/06/18 06:38:08;;;;;;;6.55;2.72;;;;;;;21.05;50.05;100953.56;1743135;80;26479;-65
2022/06/18 06:40:44;;;;;;;8.00;2.92;;;;;;;21.24;50.13;100974.75;1751031;78;98666;-66
2022/06/18 06:43:15;;;;;;;4.72;3.12;;;;;;;21.29;49.95;100967.92;1749693;80;26055;-65
2022/06/18 06:45:44;;;;;;;4.28;3.10;;;;;;;21.28;49.80;100968.91;1751511;80;98782;-65
2022/06/18 06:48:11;;;;;;;6.22;2.83;;;;;;;21.31;49.62;100975.97;1751027;80;27427;-67
2022/06/18 06:50:40;;;;;;;9.00;3.77;;;;;;;21.21;49.51;100951.80;1755277;80;25783;-64
2022/06/18 06:53:06;;;;;;;4.25;2.67;;;;;;;21.30;49.40;100961.97;1750125;80;99092;-67
2022/06/18 06:58:22;;;;;;;26.42;16.77;;;;;;;21.43;49.26;100964.55;1747955;80;98850;-66
2022/06/18 07:00:57;;;;;;;8.73;3.00;;;;;;;21.50;49.17;100961.67;1756960;80;27504;-66
2022/06/18 07:03:30;;;;;;;4.87;2.58;;;;;;;21.74;49.03;100964.19;1750666;80;98816;-66
2022/06/18 07:05:59;;;;;;;9.13;2.83;;;;;;;21.74;49.03;100964.19;1751039;80;25735;-64
2022/06/18 07:08:28;;;;;;;9.28;2.50;;;;;;;21.90;48.16;100934.59;1752041;80;25826;-63
2022/06/18 07:10:56;;;;;;;8.85;2.75;;;;;;;21.90;48.16;100934.59;1754855;80;98742;-66
2022/06/18 07:13:23;;;;;;;17.02;2.98;;;;;;;22.15;48.65;100950.61;1750207;80;27426;-64
2022/06/18 07:15:51;;;;;;;6.60;2.55;;;;;;;22.30;48.38;100936.12;1744563;80;98784;-63
2022/06/18 07:18:24;;;;;;;9.43;2.58;;;;;;;22.39;48.22;100935.81;1709967;82;25977;-63
2022/06/18 07:20:50;;;;;;;7.65;1.98;;;;;;;22.50;48.03;100930.27;1694945;81;98931;-63
2022/06/18 07:23:17;;;;;;;5.17;2.33;;;;;;;22.63;47.80;100926.80;1704575;82;25728;-63
2022/06/18 07:25:44;;;;;;;8.28;2.20;;;;;;;22.76;47.72;100919.73;1756914;80;28085;-63
2022/06/18 07:28:10;;;;;;;3.67;2.00;;;;;;;22.86;47.45;100917.94;1748045;80;98750;-65
2022/06/18 07:30:37;;;;;;;4.87;2.00;;;;;;;22.93;47.26;100917.23;1750100;80;25793;-64
2022/06/18 07:33:06;;;;;;;8.83;2.37;;;;;;;22.99;46.84;100916.69;1752729;80;98930;-64
2022/06/18 07:35:34;;;;;;;5.65;1.98;;;;;;;23.06;46.62;100910.66;1751672;80;26603;-63
2022/06/18 07:38:02;;;;;;;6.85;1.90;;;;;;;23.09;46.51;100903.03;1752554;80;27478;-64
2022/06/18 07:40:33;;;;;;;4.72;1.57;;;;;;;23.13;46.34;100906.35;1754402;80;98616;-64
2022/06/18 07:43:01;;;;;;;1.62;1.42;;;;;;;23.19;46.14;100905.28;1728636;81;25789;-64
2022/06/18 07:45:28;;;;;;;2.22;1.57;;;;;;;23.26;45.88;100906.95;1734392;81;98792;-65
2022/06/18 07:47:56;;;;;;;2.87;1.55;;;;;;;23.37;45.86;100907.33;1742295;81;25509;-65
2022/06/18 07:50:23;;;;;;;3.15;1.45;;;;;;;23.48;45.64;100904.42;1752512;80;28504;-64
2022/06/18 07:52:50;;;;;;;10.68;2.02;;;;;;;23.58;45.38;100891.14;1706049;81;98603;-65
2022/06/18 07:55:21;;;;;;;12.15;6.05;;;;;;;23.63;45.17;100898.41;1750332;80;26155;-65
2022/06/18 07:57:49;;;;;;;11.38;5.97;;;;;;;23.67;44.88;100891.28;1727931;81;99026;-65
2022/06/18 08:00:19;;;;;;;6.78;1.75;;;;;;;23.75;44.68;100895.02;1730861;81;25747;-66
2022/06/18 08:02:47;;;;;;;5.03;1.53;;;;;;;23.84;44.46;100890.55;1728316;81;98880;-65
2022/06/18 08:05:22;;;;;;;3.75;1.80;;;;;;;23.94;44.28;100896.37;1721990;81;25901;-67
2022/06/18 08:07:49;;;;;;;9.38;1.67;;;;;;;24.06;43.82;100880.64;1733106;81;26352;-66
2022/06/18 08:10:16;;;;;;;3.45;2.08;;;;;;;24.19;43.18;100882.55;1733465;81;98941;-66
2022/06/18 08:12:45;;;;;;;8.08;1.57;;;;;;;24.30;43.31;100883.42;1727685;81;26477;-65
2022/06/18 08:15:13;;;;;;;6.08;2.80;;;;;;;24.35;43.13;100878.36;1698750;82;98990;-65
2022/06/18 08:17:44;;;;;;;4.80;1.45;;;;;;;24.49;43.00;100877.36;1752970;80;25311;-65
2022/06/18 08:20:13;;;;;;;8.13;1.67;;;;;;;24.57;42.71;100871.13;1749893;80;25781;-66
2022/06/18 08:22:45;;;;;;;11.30;4.35;;;;;;;24.70;42.33;100879.00;1734478;81;99392;-66
2022/06/18 08:25:13;;;;;;;12.07;2.50;;;;;;;24.83;42.24;100872.66;1756173;80;26456;-66
2022/06/18 08:27:41;;;;;;;5.87;2.15;;;;;;;24.90;41.87;100860.92;1751700;80;98857;-66
2022/06/18 08:30:10;;;;;;;1.55;1.00;;;;;;;24.99;41.56;100866.03;1727569;81;26351;-66
2022/06/18 08:32:36;;;;;;;2.20;1.17;;;;;;;25.09;41.42;100865.96;1730636;81;25848;-66
2022/06/18 08:35:05;;;;;;;3.83;1.20;;;;;;;25.17;41.09;100853.70;1734095;81;98671;-65
2022/06/18 08:37:33;;;;;;;3.70;1.22;;;;;;;25.23;40.88;100855.83;1706313;81;25374;-66
2022/06/18 08:40:00;;;;;;;3.47;1.98;;;;;;;25.31;40.67;100850.42;1708335;82;98701;-65
2022/06/18 08:42:46;;;;;;;7.37;1.57;;;;;;;25.41;40.21;100850.34;1760774;79;26755;-65
2022/06/18 08:45:30;;;;;;;11.68;1.60;;;;;;;25.46;39.91;100852.97;1748810;80;98741;-66
2022/06/18 08:48:21;;;;;;;10.20;1.60;;;;;;;25.54;39.60;100837.08;1751497;80;27138;-65
2022/06/18 08:51:00;;;;;;;9.83;1.72;;;;;;;25.70;39.57;100833.64;1752364;80;99098;-66
2022/06/18 08:54:03;;;;;;;5.35;1.20;;;;;;;25.76;39.43;100834.38;1750672;80;27453;-65
2022/06/18 08:57:01;;;;;;;3.02;1.52;;;;;;;25.78;38.19;100833.70;1745891;80;25730;-65
2022/06/18 08:59:39;;;;;;;15.08;1.60;;;;;;;25.72;38.49;100818.73;1741656;82;25761;-65
2022/06/18 09:02:14;;;;;;;5.80;1.75;;;;;;;25.77;38.46;100819.12;1741188;81;26065;-64
2022/06/18 09:05:17;;;;;;;2.47;1.10;;;;;;;25.87;38.10;100819.87;1740620;81;98805;-66
2022/06/18 09:08:03;;;;;;;6.83;3.12;;;;;;;25.85;37.54;100819.17;1741529;82;27516;-62
2022/06/18 09:11:09;;;;;;;6.35;1.17;;;;;;;25.84;37.22;100823.45;1747470;81;98820;-62
2022/06/18 09:13:47;;;;;;;3.22;1.00;;;;;;;25.88;36.88;100804.26;1732758;81;25820;-64
2022/06/18 09:16:18;;;;;;;3.87;1.12;;;;;;;25.91;36.78;100794.33;1745345;81;98784;-64
2022/06/18 09:18:49;;;;;;;5.08;1.47;;;;;;;26.05;36.86;100794.20;1748309;81;25483;-63
2022/06/18 09:21:28;;;;;;;5.83;1.25;;;;;;;26.20;36.81;100792.06;1749441;80;98414;-64
2022/06/18 09:24:05;;;;;;;5.95;1.20;;;;;;;26.34;36.66;100791.12;1750123;80;25687;-64
2022/06/18 09:26:40;;;;;;;4.03;0.85;;;;;;;26.40;36.44;100786.34;1751077;80;25588;-65
2022/06/18 09:29:23;;;;;;;2.67;1.12;;;;;;;26.41;35.50;100788.92;1747563;80;98729;-65
2022/06/18 09:32:08;;;;;;;9.50;1.75;;;;;;;26.44;35.72;100783.61;1703634;82;25828;-64
2022/06/18 09:35:04;;;;;;;3.52;1.00;;;;;;;26.47;35.25;100781.39;1699518;82;98722;-64
2022/06/18 09:37:53;;;;;;;1.98;1.15;;;;;;;26.61;35.28;100776.28;1674768;83;25945;-64
2022/06/18 09:40:34;;;;;;;2.87;0.90;;;;;;;26.67;34.98;100772.36;1747339;80;98802;-64
2022/06/18 09:43:15;;;;;;;;;;;;;;;26.71;34.72;100774.26;1720109;80;26156;-64
2022/06/18 09:45:49;;;;;;;5.83;2.30;;;;;;;26.76;34.31;100762.23;1752760;80;84516;-65
2022/06/18 09:48:15;;;;;;;7.30;1.15;;;;;;;26.77;34.52;100761.20;1751297;80;27430;-64
2022/06/18 09:50:49;;;;;;;2.67;1.00;;;;;;;26.87;34.39;100749.54;1753440;80;25743;-64
2022/06/18 09:53:35;;;;;;;6.45;1.27;;;;;;;26.92;34.47;100743.53;1750002;78;97900;-64
2022/06/18 09:56:10;;;;;;;3.00;1.00;;;;;;;26.99;34.49;100744.61;1747660;80;26058;-64
2022/06/18 09:58:47;;;;;;;4.87;1.20;;;;;;;27.07;34.29;100737.73;1753952;80;98677;-64
2022/06/18 10:01:18;;;;;;;2.60;1.07;;;;;;;27.20;34.12;100733.09;1741990;78;27490;-64
2022/06/18 10:09:11;;;;;;;6.15;1.40;;;;;;;27.29;34.16;100719.67;1750211;80;26466;-64
2022/06/18 10:11:40;;;;;;;1.98;0.98;;;;;;;27.36;34.00;100716.58;1708200;82;98531;-64
2022/06/18 10:14:21;;;;;;;6.53;1.60;;;;;;;27.41;34.09;100711.41;1754450;80;27448;-64
2022/06/18 10:17:20;;;;;;;2.45;1.25;;;;;;;27.43;33.97;100710.20;1748998;80;98709;-64
2022/06/18 10:20:03;;;;;;;1.52;1.27;;;;;;;27.53;33.88;100698.14;1755074;80;25740;-64
2022/06/18 10:22:54;;;;;;;2.80;1.02;;;;;;;27.66;33.98;100706.76;1752816;80;98733;-64
2022/06/18 10:25:44;;;;;;;9.63;1.15;;;;;;;27.78;33.74;100708.10;1747893;80;25747;-64
2022/06/18 10:28:30;;;;;;;5.87;1.20;;;;;;;27.82;33.66;100701.20;1741827;80;98600;-64
2022/06/18 10:31:18;;;;;;;1.55;1.20;;;;;;;27.85;33.18;100693.97;1749579;80;25841;-64
2022/06/18 10:34:10;;;;;;;4.75;1.05;;;;;;;27.94;33.13;100687.39;1752787;80;98914;-64
2022/06/18 10:36:57;;;;;;;5.33;1.17;;;;;;;28.09;33.22;100686.98;1753528;80;25619;-64
2022/06/18 10:39:49;;;;;;;2.17;1.10;;;;;;;28.34;32.69;100686.90;1750377;80;98947;-66
2022/06/18 10:42:39;;;;;;;6.92;1.35;;;;;;;28.36;32.08;100679.30;1749600;80;27414;-64
2022/06/18 10:45:35;;;;;;;2.02;0.80;;;;;;;28.43;32.04;100677.55;1724872;79;26739;-64
2022/06/18 10:48:06;;;;;;;2.90;1.00;;;;;;;28.43;31.77;100662.38;1760169;79;25703;-64
2022/06/18 10:50:42;;;;;;;8.00;0.90;;;;;;;28.57;31.53;100676.77;1758668;79;26217;-64
2022/06/18 10:53:14;;;;;;;1.52;1.00;;;;;;;28.64;31.52;100669.45;1735965;79;98663;-64
2022/06/18 10:55:42;;;;;;;2.77;1.60;;;;;;;28.67;31.49;100661.33;1753757;79;27507;-64
2022/06/18 10:58:13;;;;;;;1.90;1.10;;;;;;;28.77;31.40;100672.97;1764668;79;98862;-64
2022/06/18 11:00:45;;;;;;;1.35;0.65;;;;;;;28.96;31.24;100665.61;1761365;79;26422;-66
2022/06/18 11:03:22;;;;;;;3.40;1.40;;;;;;;29.09;31.43;100660.84;1758400;79;26382;-64
2022/06/18 11:05:50;;;;;;;1.02;0.85;;;;;;;29.21;31.08;100664.88;1724371;79;99217;-65
2022/06/18 11:08:28;;;;;;;7.22;1.60;;;;;;;29.30;31.43;100659.61;1765874;79;27412;-63
2022/06/18 11:11:04;;;;;;;5.75;0.90;;;;;;;29.37;30.93;100670.76;1757046;79;98986;-63
2022/06/18 11:13:39;;;;;;;5.67;1.22;;;;;;;29.45;31.05;100661.05;1762345;79;25786;-63
2022/06/18 11:16:20;;;;;;;3.45;0.98;;;;;;;29.59;30.88;100662.97;1759842;79;98802;-63
2022/06/18 11:19:00;;;;;;;3.10;1.40;;;;;;;29.65;30.86;100657.20;1758757;79;25801;-64
2022/06/18 11:21:40;;;;;;;5.87;1.20;;;;;;;29.76;30.97;100654.49;1755817;79;27454;-64
2022/06/18 11:24:32;;;;;;;3.75;1.10;;;;;;;29.86;30.66;100647.63;1762491;79;98426;-66
2022/06/18 11:27:04;;;;;;;2.98;0.90;;;;;;;29.97;30.71;100647.14;1764382;79;25735;-64
2022/06/18 11:29:41;;;;;;;5.87;1.30;;;;;;;30.13;30.31;100642.48;1762195;79;98663;-64
2022/06/18 11:32:38;;;;;;;5.60;1.57;;;;;;;30.25;30.18;100643.69;1759664;79;25691;-64
2022/06/18 11:35:12;;;;;;;7.22;1.32;;;;;;;30.42;29.97;100638.78;1758938;79;98989;-64
2022/06/18 11:37:38;;;;;;;4.28;1.00;;;;;;;30.44;29.71;100641.69;1764971;79;25753;-64
2022/06/18 11:40:19;;;;;;;1.90;1.00;;;;;;;30.47;29.59;100626.08;1762926;79;98734;-64
2022/06/18 11:43:06;;;;;;;1.98;1.00;;;;;;;30.44;29.04;100620.94;1759579;79;26135;-64
2022/06/18 11:45:55;;;;;;;3.37;1.52;;;;;;;30.41;28.89;100619.95;1733320;80;25837;-64
2022/06/18 11:48:34;;;;;;;2.17;0.82;;;;;;;30.50;28.99;100605.47;1733854;81;98565;-64
2022/06/18 11:51:22;;;;;;;4.03;0.95;;;;;;;30.67;28.98;100607.81;1734892;81;26236;-66
2022/06/18 11:54:23;;;;;;;8.20;1.35;;;;;;;30.81;28.62;100607.94;1733055;81;98697;-64
2022/06/18 11:57:18;;;;;;;4.78;0.90;;;;;;;30.89;28.56;100593.95;1683734;81;26105;-64
2022/06/18 11:59:53;;;;;;;4.95;1.00;;;;;;;31.07;27.86;100582.38;1741691;81;98804;-64
2022/06/18 12:02:47;;;;;;;6.42;1.75;;;;;;;31.23;28.55;100576.55;1720800;81;27477;-64
2022/06/18 12:05:35;;;;;;;3.87;1.60;;;;;;;31.36;28.39;100579.40;1734762;81;98683;-64
2022/06/18 12:08:06;;;;;;;11.03;1.30;;;;;;;31.47;28.24;100577.44;1731392;81;26044;-64
2022/06/18 12:10:58;;;;;;;8.73;1.60;;;;;;;31.50;26.33;100581.19;1733364;80;99101;-64